LPPD

João Paulo II Airport

Ponta Delgada, Portugal
TAF LPPD 162300Z 1700/1724 02010KT 9999 SCT023 BECMG 1720/1722 VRB05KT SCT015
Issued Valid From Valid To
Jul-16 @ 23:00 UTC
(an hour ago)
Jul-17 @ 00:00 UTC
(26 minutes ago)
Jul-18 @ 00:00 UTC
(in 24 hours)
Jul-17 @ 00:00 to Jul-17 @ 20:00
TAF LPPD 162300Z 1700/1724 02010KT 9999 SCT023
Wind Visibility Clouds
20° at 10 knots 10,000+ meters
  • Scattered at 2,300' AGL
Becoming Jul-17 @ 20:00 to Jul-18 @ 00:00
BECMG 1720/1722 VRB05KT SCT015
Wind Visibility Clouds
Variable at 5 knots 10,000+ meters
  • Scattered at 1,500' AGL
TAF LPPD 162300Z 1700/1724 02010KT 9999 SCT023 BECMG 1720/1722 VRB05KT SCT015
Issued Jul-16 @ 23:00 UTC
(an hour ago)
Valid From Jul-17 @ 00:00 UTC
(26 minutes ago)
Valid To Jul-18 @ 00:00 UTC
(in 24 hours)
Jul-17 @ 00:00 - Jul-17 @ 20:00
Wind Visibility
20° at 10 knots 10,000+ meters
Clouds
  • Scattered at 2,300' AGL
Becoming Jul-17 @ 20:00 - Jul-18 @ 00:00
Wind Visibility
Variable at 5 knots 10,000+ meters
Clouds
  • Scattered at 1,500' AGL